sensor_id;sensor_type;location;lat;lon;timestamp;P1;durP1;ratioP1;P2;durP2;ratioP2
33206;SDS011;19565;46.602;11.534;2023-06-10T00:00:03;10.00;;;9.30;;
33206;SDS011;19565;46.602;11.534;2023-06-10T00:02:33;10.88;;;10.07;;
33206;SDS011;19565;46.602;11.534;2023-06-10T00:05:01;11.75;;;10.80;;
33206;SDS011;19565;46.602;11.534;2023-06-10T00:07:30;11.35;;;10.55;;
33206;SDS011;19565;46.602;11.534;2023-06-10T00:09:58;9.85;;;9.02;;
33206;SDS011;19565;46.602;11.534;2023-06-10T00:12:32;10.65;;;9.80;;
33206;SDS011;19565;46.602;11.534;2023-06-10T00:15:03;10.63;;;9.90;;
33206;SDS011;19565;46.602;11.534;2023-06-10T00:17:32;10.77;;;10.00;;
33206;SDS011;19565;46.602;11.534;2023-06-10T00:20:00;11.70;;;11.00;;
33206;SDS011;19565;46.602;11.534;2023-06-10T00:22:35;10.27;;;9.48;;
33206;SDS011;19565;46.602;11.534;2023-06-10T00:25:04;10.68;;;9.93;;
33206;SDS011;19565;46.602;11.534;2023-06-10T00:27:35;10.90;;;10.20;;
33206;SDS011;19565;46.602;11.534;2023-06-10T00:30:04;8.32;;;7.65;;
33206;SDS011;19565;46.602;11.534;2023-06-10T00:32:33;7.82;;;7.22;;
33206;SDS011;19565;46.602;11.534;2023-06-10T00:35:02;8.27;;;7.55;;
33206;SDS011;19565;46.602;11.534;2023-06-10T00:37:31;8.95;;;8.25;;
33206;SDS011;19565;46.602;11.534;2023-06-10T00:40:01;8.00;;;7.40;;
33206;SDS011;19565;46.602;11.534;2023-06-10T00:42:29;9.60;;;8.90;;
33206;SDS011;19565;46.602;11.534;2023-06-10T00:44:59;8.57;;;7.68;;
33206;SDS011;19565;46.602;11.534;2023-06-10T00:47:27;6.05;;;5.32;;
33206;SDS011;19565;46.602;11.534;2023-06-10T00:49:56;7.32;;;6.72;;
33206;SDS011;19565;46.602;11.534;2023-06-10T00:52:25;6.10;;;5.53;;
33206;SDS011;19565;46.602;11.534;2023-06-10T00:54:56;6.00;;;5.60;;
33206;SDS011;19565;46.602;11.534;2023-06-10T00:57:25;6.93;;;6.32;;
33206;SDS011;19565;46.602;11.534;2023-06-10T00:59:53;8.32;;;5.55;;
33206;SDS011;19565;46.602;11.534;2023-06-10T01:02:23;7.15;;;6.28;;
33206;SDS011;19565;46.602;11.534;2023-06-10T01:04:51;29.98;;;7.50;;
33206;SDS011;19565;46.602;11.534;2023-06-10T01:07:21;6.55;;;6.05;;
33206;SDS011;19565;46.602;11.534;2023-06-10T01:09:54;6.88;;;6.35;;
33206;SDS011;19565;46.602;11.534;2023-06-10T01:12:29;6.60;;;6.00;;
33206;SDS011;19565;46.602;11.534;2023-06-10T01:15:01;7.40;;;6.70;;
33206;SDS011;19565;46.602;11.534;2023-06-10T01:17:31;7.10;;;6.60;;
33206;SDS011;19565;46.602;11.534;2023-06-10T01:20:00;7.35;;;6.68;;
33206;SDS011;19565;46.602;11.534;2023-06-10T01:22:39;6.05;;;5.55;;
33206;SDS011;19565;46.602;11.534;2023-06-10T01:25:07;8.10;;;7.47;;
33206;SDS011;19565;46.602;11.534;2023-06-10T01:27:38;7.50;;;6.90;;
33206;SDS011;19565;46.602;11.534;2023-06-10T01:30:08;7.95;;;7.22;;
33206;SDS011;19565;46.602;11.534;2023-06-10T01:32:43;9.25;;;8.55;;
33206;SDS011;19565;46.602;11.534;2023-06-10T01:35:13;7.90;;;7.28;;
33206;SDS011;19565;46.602;11.534;2023-06-10T01:37:45;9.38;;;8.57;;
33206;SDS011;19565;46.602;11.534;2023-06-10T01:40:14;10.43;;;9.73;;
33206;SDS011;19565;46.602;11.534;2023-06-10T01:42:46;9.65;;;8.95;;
33206;SDS011;19565;46.602;11.534;2023-06-10T01:45:14;10.00;;;9.32;;
33206;SDS011;19565;46.602;11.534;2023-06-10T01:47:42;9.93;;;9.20;;
33206;SDS011;19565;46.602;11.534;2023-06-10T01:50:10;11.27;;;10.20;;
33206;SDS011;19565;46.602;11.534;2023-06-10T01:52:39;11.55;;;10.73;;
33206;SDS011;19565;46.602;11.534;2023-06-10T01:55:08;9.80;;;9.00;;
33206;SDS011;19565;46.602;11.534;2023-06-10T01:57:37;8.88;;;8.27;;
33206;SDS011;19565;46.602;11.534;2023-06-10T02:00:05;9.70;;;9.00;;
33206;SDS011;19565;46.602;11.534;2023-06-10T02:02:34;11.02;;;10.25;;
33206;SDS011;19565;46.602;11.534;2023-06-10T02:05:02;11.48;;;10.57;;
33206;SDS011;19565;46.602;11.534;2023-06-10T02:07:31;9.27;;;8.57;;
33206;SDS011;19565;46.602;11.534;2023-06-10T02:09:59;9.30;;;8.70;;
33206;SDS011;19565;46.602;11.534;2023-06-10T02:12:29;10.05;;;9.35;;
33206;SDS011;19565;46.602;11.534;2023-06-10T02:14:57;9.43;;;8.73;;
33206;SDS011;19565;46.602;11.534;2023-06-10T02:17:25;10.02;;;9.15;;
33206;SDS011;19565;46.602;11.534;2023-06-10T02:19:53;9.00;;;8.20;;
33206;SDS011;19565;46.602;11.534;2023-06-10T02:22:23;8.65;;;8.05;;
33206;SDS011;19565;46.602;11.534;2023-06-10T02:24:51;8.90;;;8.10;;
33206;SDS011;19565;46.602;11.534;2023-06-10T02:27:20;8.57;;;7.88;;
33206;SDS011;19565;46.602;11.534;2023-06-10T02:29:49;8.25;;;7.45;;
33206;SDS011;19565;46.602;11.534;2023-06-10T02:32:17;8.10;;;7.55;;
33206;SDS011;19565;46.602;11.534;2023-06-10T02:34:47;8.48;;;7.88;;
33206;SDS011;19565;46.602;11.534;2023-06-10T02:37:16;7.95;;;7.25;;
33206;SDS011;19565;46.602;11.534;2023-06-10T02:39:44;7.20;;;6.22;;
33206;SDS011;19565;46.602;11.534;2023-06-10T02:42:12;7.18;;;6.68;;
33206;SDS011;19565;46.602;11.534;2023-06-10T02:44:40;6.30;;;5.70;;
33206;SDS011;19565;46.602;11.534;2023-06-10T02:47:09;6.43;;;5.80;;
33206;SDS011;19565;46.602;11.534;2023-06-10T02:49:37;6.22;;;5.65;;
33206;SDS011;19565;46.602;11.534;2023-06-10T02:52:06;5.80;;;5.30;;
33206;SDS011;19565;46.602;11.534;2023-06-10T02:54:34;5.00;;;4.60;;
33206;SDS011;19565;46.602;11.534;2023-06-10T02:57:03;4.75;;;4.25;;
33206;SDS011;19565;46.602;11.534;2023-06-10T02:59:31;5.60;;;4.30;;
33206;SDS011;19565;46.602;11.534;2023-06-10T03:01:59;5.05;;;4.40;;
33206;SDS011;19565;46.602;11.534;2023-06-10T03:04:29;5.00;;;4.57;;
33206;SDS011;19565;46.602;11.534;2023-06-10T03:06:57;5.60;;;5.10;;
33206;SDS011;19565;46.602;11.534;2023-06-10T03:09:26;3.58;;;3.28;;
33206;SDS011;19565;46.602;11.534;2023-06-10T03:11:54;5.32;;;4.25;;
33206;SDS011;19565;46.602;11.534;2023-06-10T03:14:22;3.92;;;3.58;;
33206;SDS011;19565;46.602;11.534;2023-06-10T03:16:51;4.10;;;3.70;;
33206;SDS011;19565;46.602;11.534;2023-06-10T03:19:19;4.35;;;3.63;;
33206;SDS011;19565;46.602;11.534;2023-06-10T03:21:57;3.53;;;3.22;;
33206;SDS011;19565;46.602;11.534;2023-06-10T03:24:34;9.27;;;3.25;;
33206;SDS011;19565;46.602;11.534;2023-06-10T03:27:03;4.65;;;4.13;;
33206;SDS011;19565;46.602;11.534;2023-06-10T03:29:31;8.23;;;4.50;;
33206;SDS011;19565;46.602;11.534;2023-06-10T03:31:59;4.32;;;4.03;;
33206;SDS011;19565;46.602;11.534;2023-06-10T03:34:27;3.78;;;3.25;;
33206;SDS011;19565;46.602;11.534;2023-06-10T03:36:57;3.63;;;3.30;;
33206;SDS011;19565;46.602;11.534;2023-06-10T03:39:25;4.25;;;3.92;;
33206;SDS011;19565;46.602;11.534;2023-06-10T03:41:55;4.47;;;3.53;;
33206;SDS011;19565;46.602;11.534;2023-06-10T03:44:24;3.80;;;3.00;;
33206;SDS011;19565;46.602;11.534;2023-06-10T03:46:53;4.90;;;4.40;;
33206;SDS011;19565;46.602;11.534;2023-06-10T03:49:22;6.47;;;4.70;;
33206;SDS011;19565;46.602;11.534;2023-06-10T03:51:52;4.15;;;3.65;;
33206;SDS011;19565;46.602;11.534;2023-06-10T03:54:21;4.32;;;2.97;;
33206;SDS011;19565;46.602;11.534;2023-06-10T03:56:49;3.72;;;3.35;;
33206;SDS011;19565;46.602;11.534;2023-06-10T03:59:17;3.72;;;3.30;;
33206;SDS011;19565;46.602;11.534;2023-06-10T04:01:45;4.28;;;3.67;;
33206;SDS011;19565;46.602;11.534;2023-06-10T04:04:14;5.10;;;4.57;;
33206;SDS011;19565;46.602;11.534;2023-06-10T04:06:43;4.40;;;3.97;;
33206;SDS011;19565;46.602;11.534;2023-06-10T04:09:11;4.32;;;3.67;;
33206;SDS011;19565;46.602;11.534;2023-06-10T04:11:42;4.93;;;4.40;;
33206;SDS011;19565;46.602;11.534;2023-06-10T04:14:10;4.70;;;4.25;;
33206;SDS011;19565;46.602;11.534;2023-06-10T04:16:40;4.22;;;3.83;;
33206;SDS011;19565;46.602;11.534;2023-06-10T04:19:08;4.20;;;3.83;;
33206;SDS011;19565;46.602;11.534;2023-06-10T04:21:37;4.93;;;4.32;;
33206;SDS011;19565;46.602;11.534;2023-06-10T04:24:07;4.50;;;4.10;;
33206;SDS011;19565;46.602;11.534;2023-06-10T04:26:35;3.10;;;2.83;;
33206;SDS011;19565;46.602;11.534;2023-06-10T04:29:04;4.85;;;4.38;;
33206;SDS011;19565;46.602;11.534;2023-06-10T04:31:32;4.00;;;3.60;;
33206;SDS011;19565;46.602;11.534;2023-06-10T04:34:01;4.65;;;4.22;;
33206;SDS011;19565;46.602;11.534;2023-06-10T04:36:29;5.80;;;4.10;;
33206;SDS011;19565;46.602;11.534;2023-06-10T04:38:57;4.88;;;4.38;;
33206;SDS011;19565;46.602;11.534;2023-06-10T04:41:25;3.95;;;3.50;;
33206;SDS011;19565;46.602;11.534;2023-06-10T04:43:53;4.22;;;3.83;;
33206;SDS011;19565;46.602;11.534;2023-06-10T04:46:22;3.97;;;3.67;;
33206;SDS011;19565;46.602;11.534;2023-06-10T04:48:51;3.55;;;3.22;;
33206;SDS011;19565;46.602;11.534;2023-06-10T04:51:20;5.97;;;5.45;;
33206;SDS011;19565;46.602;11.534;2023-06-10T04:53:48;6.53;;;5.47;;
33206;SDS011;19565;46.602;11.534;2023-06-10T04:56:17;6.75;;;6.15;;
33206;SDS011;19565;46.602;11.534;2023-06-10T04:58:45;7.10;;;6.50;;
33206;SDS011;19565;46.602;11.534;2023-06-10T05:01:13;6.32;;;5.85;;
33206;SDS011;19565;46.602;11.534;2023-06-10T05:03:42;6.95;;;6.45;;
33206;SDS011;19565;46.602;11.534;2023-06-10T05:06:10;7.78;;;7.15;;
33206;SDS011;19565;46.602;11.534;2023-06-10T05:08:38;7.75;;;7.15;;
33206;SDS011;19565;46.602;11.534;2023-06-10T05:11:07;8.13;;;7.53;;
33206;SDS011;19565;46.602;11.534;2023-06-10T05:13:35;6.90;;;6.40;;
33206;SDS011;19565;46.602;11.534;2023-06-10T05:16:03;8.88;;;6.10;;
33206;SDS011;19565;46.602;11.534;2023-06-10T05:18:31;6.75;;;5.88;;
33206;SDS011;19565;46.602;11.534;2023-06-10T05:21:00;6.88;;;6.28;;
33206;SDS011;19565;46.602;11.534;2023-06-10T05:23:29;6.57;;;6.05;;
33206;SDS011;19565;46.602;11.534;2023-06-10T05:25:57;6.88;;;6.25;;
33206;SDS011;19565;46.602;11.534;2023-06-10T05:28:25;5.57;;;5.03;;
33206;SDS011;19565;46.602;11.534;2023-06-10T05:30:53;7.07;;;6.50;;
33206;SDS011;19565;46.602;11.534;2023-06-10T05:33:21;8.07;;;7.53;;
33206;SDS011;19565;46.602;11.534;2023-06-10T05:35:49;8.73;;;8.13;;
33206;SDS011;19565;46.602;11.534;2023-06-10T05:38:19;9.52;;;8.82;;
33206;SDS011;19565;46.602;11.534;2023-06-10T05:40:47;11.75;;;11.00;;
33206;SDS011;19565;46.602;11.534;2023-06-10T05:43:15;15.27;;;14.27;;
33206;SDS011;19565;46.602;11.534;2023-06-10T05:45:44;15.45;;;14.27;;
33206;SDS011;19565;46.602;11.534;2023-06-10T05:48:12;15.30;;;14.40;;
33206;SDS011;19565;46.602;11.534;2023-06-10T05:50:40;17.90;;;16.90;;
33206;SDS011;19565;46.602;11.534;2023-06-10T05:53:11;23.13;;;21.73;;
33206;SDS011;19565;46.602;11.534;2023-06-10T05:55:43;21.85;;;20.45;;
33206;SDS011;19565;46.602;11.534;2023-06-10T05:58:12;26.45;;;24.95;;
33206;SDS011;19565;46.602;11.534;2023-06-10T06:00:41;23.83;;;22.33;;
33206;SDS011;19565;46.602;11.534;2023-06-10T06:03:09;20.42;;;19.40;;
33206;SDS011;19565;46.602;11.534;2023-06-10T06:05:37;21.83;;;20.55;;
33206;SDS011;19565;46.602;11.534;2023-06-10T06:08:06;21.45;;;20.25;;
33206;SDS011;19565;46.602;11.534;2023-06-10T06:10:34;23.05;;;21.73;;
33206;SDS011;19565;46.602;11.534;2023-06-10T06:13:04;20.95;;;19.77;;
33206;SDS011;19565;46.602;11.534;2023-06-10T06:15:32;21.42;;;20.23;;
33206;SDS011;19565;46.602;11.534;2023-06-10T06:18:00;20.90;;;19.80;;
33206;SDS011;19565;46.602;11.534;2023-06-10T06:20:28;22.40;;;20.90;;
33206;SDS011;19565;46.602;11.534;2023-06-10T06:22:56;20.70;;;19.70;;
33206;SDS011;19565;46.602;11.534;2023-06-10T06:25:24;23.20;;;21.15;;
33206;SDS011;19565;46.602;11.534;2023-06-10T06:27:52;22.83;;;21.58;;
33206;SDS011;19565;46.602;11.534;2023-06-10T06:30:22;22.25;;;21.05;;
33206;SDS011;19565;46.602;11.534;2023-06-10T06:32:50;22.20;;;20.90;;
33206;SDS011;19565;46.602;11.534;2023-06-10T06:35:18;21.50;;;20.40;;
33206;SDS011;19565;46.602;11.534;2023-06-10T06:37:47;21.58;;;20.48;;
33206;SDS011;19565;46.602;11.534;2023-06-10T06:40:15;21.40;;;20.02;;
33206;SDS011;19565;46.602;11.534;2023-06-10T06:42:44;21.50;;;20.38;;
33206;SDS011;19565;46.602;11.534;2023-06-10T06:45:12;21.00;;;19.83;;
33206;SDS011;19565;46.602;11.534;2023-06-10T06:47:42;22.58;;;21.27;;
33206;SDS011;19565;46.602;11.534;2023-06-10T06:50:10;21.80;;;20.67;;
33206;SDS011;19565;46.602;11.534;2023-06-10T06:52:39;21.58;;;20.48;;
33206;SDS011;19565;46.602;11.534;2023-06-10T06:55:07;21.67;;;20.58;;
33206;SDS011;19565;46.602;11.534;2023-06-10T06:57:36;21.92;;;20.73;;
33206;SDS011;19565;46.602;11.534;2023-06-10T07:00:05;22.13;;;20.95;;
33206;SDS011;19565;46.602;11.534;2023-06-10T07:02:35;21.63;;;20.38;;
33206;SDS011;19565;46.602;11.534;2023-06-10T07:05:05;21.67;;;20.38;;
33206;SDS011;19565;46.602;11.534;2023-06-10T07:07:34;22.48;;;21.08;;
33206;SDS011;19565;46.602;11.534;2023-06-10T07:10:02;22.23;;;21.02;;
33206;SDS011;19565;46.602;11.534;2023-06-10T07:12:30;22.27;;;21.08;;
33206;SDS011;19565;46.602;11.534;2023-06-10T07:14:58;21.63;;;20.45;;
33206;SDS011;19565;46.602;11.534;2023-06-10T07:17:26;21.88;;;20.77;;
33206;SDS011;19565;46.602;11.534;2023-06-10T07:19:54;22.63;;;21.42;;
33206;SDS011;19565;46.602;11.534;2023-06-10T07:22:25;21.92;;;20.80;;
33206;SDS011;19565;46.602;11.534;2023-06-10T07:24:53;21.88;;;20.77;;
33206;SDS011;19565;46.602;11.534;2023-06-10T07:27:21;22.77;;;21.50;;
33206;SDS011;19565;46.602;11.534;2023-06-10T07:29:50;21.73;;;20.52;;
33206;SDS011;19565;46.602;11.534;2023-06-10T07:32:18;21.60;;;20.50;;
33206;SDS011;19565;46.602;11.534;2023-06-10T07:34:48;22.25;;;21.08;;
33206;SDS011;19565;46.602;11.534;2023-06-10T07:37:16;21.63;;;20.52;;
33206;SDS011;19565;46.602;11.534;2023-06-10T07:39:47;21.17;;;20.08;;
33206;SDS011;19565;46.602;11.534;2023-06-10T07:42:15;22.77;;;21.55;;
33206;SDS011;19565;46.602;11.534;2023-06-10T07:44:43;22.65;;;21.45;;
33206;SDS011;19565;46.602;11.534;2023-06-10T07:47:11;22.50;;;21.30;;
33206;SDS011;19565;46.602;11.534;2023-06-10T07:49:39;30.27;;;28.85;;
33206;SDS011;19565;46.602;11.534;2023-06-10T07:52:08;23.50;;;22.30;;
33206;SDS011;19565;46.602;11.534;2023-06-10T07:54:36;22.92;;;21.50;;
33206;SDS011;19565;46.602;11.534;2023-06-10T07:57:06;22.02;;;20.85;;
33206;SDS011;19565;46.602;11.534;2023-06-10T07:59:34;23.17;;;21.77;;
33206;SDS011;19565;46.602;11.534;2023-06-10T08:02:02;70.53;;;66.78;;
33206;SDS011;19565;46.602;11.534;2023-06-10T08:04:31;53.40;;;51.05;;
33206;SDS011;19565;46.602;11.534;2023-06-10T08:07:01;186.85;;;175.55;;
33206;SDS011;19565;46.602;11.534;2023-06-10T08:09:31;91.32;;;85.70;;
33206;SDS011;19565;46.602;11.534;2023-06-10T08:11:59;66.15;;;63.25;;
33206;SDS011;19565;46.602;11.534;2023-06-10T08:14:29;70.85;;;67.75;;
33206;SDS011;19565;46.602;11.534;2023-06-10T08:16:57;69.20;;;66.00;;
33206;SDS011;19565;46.602;11.534;2023-06-10T08:19:25;62.25;;;59.45;;
33206;SDS011;19565;46.602;11.534;2023-06-10T08:21:53;70.43;;;67.20;;
33206;SDS011;19565;46.602;11.534;2023-06-10T08:24:21;60.83;;;58.05;;
33206;SDS011;19565;46.602;11.534;2023-06-10T08:26:49;67.30;;;64.15;;
33206;SDS011;19565;46.602;11.534;2023-06-10T08:29:17;68.72;;;65.63;;
33206;SDS011;19565;46.602;11.534;2023-06-10T08:31:47;75.20;;;71.80;;
33206;SDS011;19565;46.602;11.534;2023-06-10T08:34:15;72.05;;;68.85;;
33206;SDS011;19565;46.602;11.534;2023-06-10T08:36:43;73.15;;;69.65;;
33206;SDS011;19565;46.602;11.534;2023-06-10T08:39:11;75.93;;;72.53;;
33206;SDS011;19565;46.602;11.534;2023-06-10T08:41:40;72.60;;;69.30;;
33206;SDS011;19565;46.602;11.534;2023-06-10T08:44:13;73.65;;;70.25;;
33206;SDS011;19565;46.602;11.534;2023-06-10T08:46:48;75.80;;;72.40;;
33206;SDS011;19565;46.602;11.534;2023-06-10T08:49:18;76.20;;;72.82;;
33206;SDS011;19565;46.602;11.534;2023-06-10T08:51:48;77.30;;;73.75;;
33206;SDS011;19565;46.602;11.534;2023-06-10T08:54:20;74.50;;;71.25;;
33206;SDS011;19565;46.602;11.534;2023-06-10T08:56:51;76.05;;;71.38;;
33206;SDS011;19565;46.602;11.534;2023-06-10T08:59:22;73.75;;;70.50;;
33206;SDS011;19565;46.602;11.534;2023-06-10T09:01:53;74.72;;;71.43;;
33206;SDS011;19565;46.602;11.534;2023-06-10T09:04:23;73.25;;;69.85;;
33206;SDS011;19565;46.602;11.534;2023-06-10T09:06:52;75.43;;;72.10;;
33206;SDS011;19565;46.602;11.534;2023-06-10T09:09:21;72.85;;;69.65;;
33206;SDS011;19565;46.602;11.534;2023-06-10T09:11:50;72.18;;;68.97;;
33206;SDS011;19565;46.602;11.534;2023-06-10T09:14:18;75.20;;;71.80;;
33206;SDS011;19565;46.602;11.534;2023-06-10T09:16:46;72.10;;;68.68;;
33206;SDS011;19565;46.602;11.534;2023-06-10T09:19:16;74.82;;;71.55;;
33206;SDS011;19565;46.602;11.534;2023-06-10T09:21:44;76.07;;;72.80;;
33206;SDS011;19565;46.602;11.534;2023-06-10T09:24:12;72.82;;;69.72;;
33206;SDS011;19565;46.602;11.534;2023-06-10T09:26:41;74.18;;;70.47;;
33206;SDS011;19565;46.602;11.534;2023-06-10T09:29:12;69.85;;;66.85;;
33206;SDS011;19565;46.602;11.534;2023-06-10T09:31:40;72.47;;;69.28;;
33206;SDS011;19565;46.602;11.534;2023-06-10T09:34:08;70.88;;;67.65;;
33206;SDS011;19565;46.602;11.534;2023-06-10T09:36:39;70.18;;;67.15;;
33206;SDS011;19565;46.602;11.534;2023-06-10T09:39:13;72.10;;;68.88;;
33206;SDS011;19565;46.602;11.534;2023-06-10T09:41:43;74.55;;;71.22;;
33206;SDS011;19565;46.602;11.534;2023-06-10T09:44:12;74.70;;;71.50;;
33206;SDS011;19565;46.602;11.534;2023-06-10T09:46:41;76.70;;;73.43;;
33206;SDS011;19565;46.602;11.534;2023-06-10T09:49:12;76.43;;;73.13;;
33206;SDS011;19565;46.602;11.534;2023-06-10T09:51:49;75.53;;;72.32;;
33206;SDS011;19565;46.602;11.534;2023-06-10T09:54:19;71.43;;;68.35;;
33206;SDS011;19565;46.602;11.534;2023-06-10T09:56:47;70.43;;;67.32;;
33206;SDS011;19565;46.602;11.534;2023-06-10T09:59:16;72.38;;;69.18;;
33206;SDS011;19565;46.602;11.534;2023-06-10T10:01:55;67.72;;;64.82;;
33206;SDS011;19565;46.602;11.534;2023-06-10T10:04:23;71.85;;;68.68;;
33206;SDS011;19565;46.602;11.534;2023-06-10T10:06:53;72.45;;;69.20;;
33206;SDS011;19565;46.602;11.534;2023-06-10T10:09:21;70.32;;;67.22;;
33206;SDS011;19565;46.602;11.534;2023-06-10T10:11:49;70.78;;;67.65;;
33206;SDS011;19565;46.602;11.534;2023-06-10T10:14:20;74.72;;;71.30;;
33206;SDS011;19565;46.602;11.534;2023-06-10T10:16:49;72.55;;;69.18;;
33206;SDS011;19565;46.602;11.534;2023-06-10T10:19:20;72.82;;;69.53;;
33206;SDS011;19565;46.602;11.534;2023-06-10T10:21:54;71.93;;;68.75;;
33206;SDS011;19565;46.602;11.534;2023-06-10T10:24:29;72.25;;;69.15;;
33206;SDS011;19565;46.602;11.534;2023-06-10T10:27:01;75.30;;;71.95;;
33206;SDS011;19565;46.602;11.534;2023-06-10T10:29:39;77.25;;;73.78;;
33206;SDS011;19565;46.602;11.534;2023-06-10T10:32:07;74.50;;;71.22;;
33206;SDS011;19565;46.602;11.534;2023-06-10T10:34:40;73.15;;;70.00;;
33206;SDS011;19565;46.602;11.534;2023-06-10T10:37:19;76.05;;;72.68;;
33206;SDS011;19565;46.602;11.534;2023-06-10T10:39:47;77.47;;;73.65;;
33206;SDS011;19565;46.602;11.534;2023-06-10T10:42:16;77.90;;;74.53;;
33206;SDS011;19565;46.602;11.534;2023-06-10T10:44:45;79.22;;;75.70;;
33206;SDS011;19565;46.602;11.534;2023-06-10T10:47:14;79.60;;;76.10;;
33206;SDS011;19565;46.602;11.534;2023-06-10T10:49:47;74.43;;;71.22;;
33206;SDS011;19565;46.602;11.534;2023-06-10T10:52:20;74.45;;;71.25;;
33206;SDS011;19565;46.602;11.534;2023-06-10T10:54:48;78.00;;;74.60;;
33206;SDS011;19565;46.602;11.534;2023-06-10T10:57:17;75.05;;;71.85;;
33206;SDS011;19565;46.602;11.534;2023-06-10T10:59:57;69.40;;;66.32;;
33206;SDS011;19565;46.602;11.534;2023-06-10T11:02:37;75.72;;;72.32;;
33206;SDS011;19565;46.602;11.534;2023-06-10T11:05:10;73.03;;;69.72;;
33206;SDS011;19565;46.602;11.534;2023-06-10T11:07:51;74.45;;;71.25;;
33206;SDS011;19565;46.602;11.534;2023-06-10T11:10:29;77.15;;;73.85;;
33206;SDS011;19565;46.602;11.534;2023-06-10T11:12:58;71.85;;;68.60;;
33206;SDS011;19565;46.602;11.534;2023-06-10T11:15:27;81.05;;;77.45;;
33206;SDS011;19565;46.602;11.534;2023-06-10T11:18:09;79.18;;;75.78;;
33206;SDS011;19565;46.602;11.534;2023-06-10T11:20:45;78.57;;;75.18;;
33206;SDS011;19565;46.602;11.534;2023-06-10T11:23:26;70.15;;;67.05;;
33206;SDS011;19565;46.602;11.534;2023-06-10T11:26:11;66.10;;;63.25;;
33206;SDS011;19565;46.602;11.534;2023-06-10T11:29:02;77.50;;;74.20;;
33206;SDS011;19565;46.602;11.534;2023-06-10T11:31:43;68.05;;;65.05;;
33206;SDS011;19565;46.602;11.534;2023-06-10T11:34:12;69.47;;;66.38;;
33206;SDS011;19565;46.602;11.534;2023-06-10T11:36:41;68.22;;;65.32;;
33206;SDS011;19565;46.602;11.534;2023-06-10T11:39:13;73.55;;;69.65;;
33206;SDS011;19565;46.602;11.534;2023-06-10T11:41:41;74.45;;;71.05;;
33206;SDS011;19565;46.602;11.534;2023-06-10T11:44:10;57.22;;;54.65;;
33206;SDS011;19565;46.602;11.534;2023-06-10T11:46:43;56.25;;;53.63;;
33206;SDS011;19565;46.602;11.534;2023-06-10T11:49:12;55.53;;;53.00;;
33206;SDS011;19565;46.602;11.534;2023-06-10T11:51:40;56.83;;;54.22;;
33206;SDS011;19565;46.602;11.534;2023-06-10T11:54:17;60.15;;;57.50;;
33206;SDS011;19565;46.602;11.534;2023-06-10T11:56:45;60.47;;;57.78;;
33206;SDS011;19565;46.602;11.534;2023-06-10T11:59:14;64.43;;;61.65;;
33206;SDS011;19565;46.602;11.534;2023-06-10T12:01:43;68.90;;;65.95;;
33206;SDS011;19565;46.602;11.534;2023-06-10T12:04:13;72.03;;;69.00;;
33206;SDS011;19565;46.602;11.534;2023-06-10T12:06:45;75.03;;;71.72;;
33206;SDS011;19565;46.602;11.534;2023-06-10T12:09:16;80.15;;;76.65;;
33206;SDS011;19565;46.602;11.534;2023-06-10T12:11:52;79.50;;;76.10;;
33206;SDS011;19565;46.602;11.534;2023-06-10T12:17:19;77.57;;;74.07;;
33206;SDS011;19565;46.602;11.534;2023-06-10T12:19:49;69.65;;;66.57;;
33206;SDS011;19565;46.602;11.534;2023-06-10T12:22:17;73.97;;;70.25;;
33206;SDS011;19565;46.602;11.534;2023-06-10T12:24:58;69.85;;;66.72;;
33206;SDS011;19565;46.602;11.534;2023-06-10T12:27:27;68.93;;;65.93;;
33206;SDS011;19565;46.602;11.534;2023-06-10T12:29:58;68.43;;;65.43;;
33206;SDS011;19565;46.602;11.534;2023-06-10T12:32:39;70.25;;;67.15;;
33206;SDS011;19565;46.602;11.534;2023-06-10T12:35:09;76.53;;;73.22;;
33206;SDS011;19565;46.602;11.534;2023-06-10T12:37:39;76.72;;;73.40;;
33206;SDS011;19565;46.602;11.534;2023-06-10T12:40:11;77.07;;;73.65;;
33206;SDS011;19565;46.602;11.534;2023-06-10T12:42:39;78.80;;;75.45;;
33206;SDS011;19565;46.602;11.534;2023-06-10T12:45:08;78.28;;;74.88;;
33206;SDS011;19565;46.602;11.534;2023-06-10T12:47:39;83.78;;;80.03;;
33206;SDS011;19565;46.602;11.534;2023-06-10T12:50:08;80.45;;;76.95;;
33206;SDS011;19565;46.602;11.534;2023-06-10T12:52:38;82.57;;;78.97;;
33206;SDS011;19565;46.602;11.534;2023-06-10T12:55:07;78.57;;;75.07;;
33206;SDS011;19565;46.602;11.534;2023-06-10T12:57:38;77.55;;;74.25;;
33206;SDS011;19565;46.602;11.534;2023-06-10T13:00:16;81.90;;;78.15;;
33206;SDS011;19565;46.602;11.534;2023-06-10T13:02:46;83.45;;;79.78;;
33206;SDS011;19565;46.602;11.534;2023-06-10T13:05:15;82.13;;;78.45;;
33206;SDS011;19565;46.602;11.534;2023-06-10T13:07:44;80.07;;;75.63;;
33206;SDS011;19565;46.602;11.534;2023-06-10T13:10:12;71.63;;;68.35;;
33206;SDS011;19565;46.602;11.534;2023-06-10T13:12:42;65.20;;;62.33;;
33206;SDS011;19565;46.602;11.534;2023-06-10T13:15:14;63.72;;;60.92;;
33206;SDS011;19565;46.602;11.534;2023-06-10T13:17:42;63.97;;;61.00;;
33206;SDS011;19565;46.602;11.534;2023-06-10T13:20:10;65.43;;;62.53;;
33206;SDS011;19565;46.602;11.534;2023-06-10T13:22:38;65.68;;;62.78;;
33206;SDS011;19565;46.602;11.534;2023-06-10T13:25:07;66.22;;;63.22;;
33206;SDS011;19565;46.602;11.534;2023-06-10T13:27:36;66.82;;;63.95;;
33206;SDS011;19565;46.602;11.534;2023-06-10T13:30:07;66.20;;;63.00;;
33206;SDS011;19565;46.602;11.534;2023-06-10T13:32:37;67.03;;;64.07;;
33206;SDS011;19565;46.602;11.534;2023-06-10T13:35:06;64.05;;;61.25;;
33206;SDS011;19565;46.602;11.534;2023-06-10T13:37:35;63.60;;;60.70;;
33206;SDS011;19565;46.602;11.534;2023-06-10T13:40:04;63.80;;;61.00;;
33206;SDS011;19565;46.602;11.534;2023-06-10T13:42:34;64.72;;;61.67;;
33206;SDS011;19565;46.602;11.534;2023-06-10T13:45:03;63.08;;;60.35;;
33206;SDS011;19565;46.602;11.534;2023-06-10T13:47:34;64.45;;;61.60;;
33206;SDS011;19565;46.602;11.534;2023-06-10T13:50:02;67.35;;;64.45;;
33206;SDS011;19565;46.602;11.534;2023-06-10T13:52:31;66.90;;;63.92;;
33206;SDS011;19565;46.602;11.534;2023-06-10T13:54:59;68.45;;;65.45;;
33206;SDS011;19565;46.602;11.534;2023-06-10T13:57:27;68.47;;;65.55;;
33206;SDS011;19565;46.602;11.534;2023-06-10T13:59:55;65.20;;;62.40;;
33206;SDS011;19565;46.602;11.534;2023-06-10T14:02:23;68.10;;;65.10;;
33206;SDS011;19565;46.602;11.534;2023-06-10T14:04:52;67.68;;;64.68;;
33206;SDS011;19565;46.602;11.534;2023-06-10T14:07:21;68.35;;;65.32;;
33206;SDS011;19565;46.602;11.534;2023-06-10T14:09:49;70.45;;;67.45;;
33206;SDS011;19565;46.602;11.534;2023-06-10T14:12:17;70.10;;;66.97;;
33206;SDS011;19565;46.602;11.534;2023-06-10T14:14:45;66.32;;;63.47;;
33206;SDS011;19565;46.602;11.534;2023-06-10T14:17:14;67.13;;;64.15;;
33206;SDS011;19565;46.602;11.534;2023-06-10T14:19:42;69.05;;;66.00;;
33206;SDS011;19565;46.602;11.534;2023-06-10T14:22:11;70.40;;;67.03;;
33206;SDS011;19565;46.602;11.534;2023-06-10T14:24:39;66.38;;;63.53;;
33206;SDS011;19565;46.602;11.534;2023-06-10T14:27:07;66.30;;;63.30;;
33206;SDS011;19565;46.602;11.534;2023-06-10T14:29:35;66.85;;;63.63;;
33206;SDS011;19565;46.602;11.534;2023-06-10T14:32:03;67.60;;;64.72;;
33206;SDS011;19565;46.602;11.534;2023-06-10T14:34:35;66.15;;;63.25;;